LELN

Leon Airport

Airport
ICAO code
LELN
IATA Code
LEN
Summary
ICAO Region
EUR
ICAO Territory
Location

, Castilla y Leon

Serving
Leon
Elevation
3006 ft
Coordinates
42° 35' 20" N , 5° 39' 20" W
Metar
Observation
LELN 050200Z AUTO 36003KT 330V040 9999 OVC011 02/01 Q1012
Station
Leon / Virgen Del Camino
Date/Time
2022-12-05 02:00:00
Wind direction
360°
Wind speed
03 kts
Lowest cloud amount
overcast
Temperature
2°C
Dew point
1°C
Humidity
93%
QNH
1012 hPa
Weather condition
n/a

Runways

Designator Length Width Surface Rops
6/24 1100 100 GRE No/No
5/23 2100 45 ASP No/No

Airport map

Aerial View

SKYbrary Partners:

Safety knowledge contributed by: